Time;durP1;ratioP1;P1;durP2;ratioP2;P2;SDS_P1;SDS_P2;PMS_P1;PMS_P2;Temp;Humidity;BMP_temperature;BMP_pressure;BME280_temperature;BME280_humidity;BME280_pressure;Samples;Min_cycle;Max_cycle;Signal;HPM_P1;HPM_P2
2024/01/06 00:02:22;;;;;;;2.72;1.02;;;3.30;99.90;;;;;;5054962;28;20033;-64
2024/01/06 00:04:47;;;;;;;0.70;0.70;;;3.30;99.90;;;;;;5055315;28;20132;-64
2024/01/06 00:07:14;;;;;;;0.82;0.82;;;3.30;99.90;;;;;;5054728;28;20936;-64
2024/01/06 00:09:39;;;;;;;0.60;0.60;;;3.30;99.90;;;;;;5064177;28;20052;-64
2024/01/06 00:12:05;;;;;;;1.83;1.05;;;3.30;99.90;;;;;;5058502;28;20041;-65
2024/01/06 00:14:31;;;;;;;2.17;1.33;;;3.30;99.90;;;;;;5057862;28;20032;-65
2024/01/06 00:16:57;;;;;;;0.90;0.47;;;3.30;99.90;;;;;;5062326;28;20047;-64
2024/01/06 00:19:22;;;;;;;0.47;0.47;;;3.30;99.90;;;;;;5054419;28;20045;-65
2024/01/06 00:21:48;;;;;;;1.98;1.38;;;3.30;99.90;;;;;;5053085;28;20614;-64
2024/01/06 00:24:13;;;;;;;3.40;0.90;;;3.30;99.90;;;;;;5049000;28;20140;-64
2024/01/06 00:26:39;;;;;;;1.50;0.57;;;3.30;99.90;;;;;;5066835;28;20124;-65
2024/01/06 00:29:04;;;;;;;0.50;0.50;;;3.30;99.90;;;;;;5067131;28;20044;-64
2024/01/06 00:31:30;;;;;;;0.73;0.73;;;3.30;99.90;;;;;;5069937;28;20196;-63
2024/01/06 00:33:55;;;;;;;2.80;0.20;;;3.30;99.90;;;;;;5069001;28;20098;-63
2024/01/06 00:36:21;;;;;;;0.55;0.20;;;3.40;99.90;;;;;;5063357;28;20037;-63
2024/01/06 00:38:47;;;;;;;7.43;1.65;;;3.40;99.90;;;;;;5093536;28;20048;-64
2024/01/06 00:41:14;;;;;;;4.22;1.00;;;3.50;99.90;;;;;;5067914;28;20038;-65
2024/01/06 00:43:39;;;;;;;2.38;1.10;;;3.60;99.90;;;;;;5053821;28;20568;-64
2024/01/06 00:46:05;;;;;;;1.35;1.25;;;3.50;99.90;;;;;;5054871;28;20127;-64
2024/01/06 00:48:30;;;;;;;1.42;1.33;;;3.50;99.90;;;;;;5068535;28;20036;-65
2024/01/06 00:50:56;;;;;;;2.58;1.25;;;3.40;99.90;;;;;;5065956;28;20510;-65
2024/01/06 00:53:22;;;;;;;2.88;1.50;;;3.30;99.90;;;;;;5066540;28;20502;-64
2024/01/06 00:55:47;;;;;;;2.38;2.10;;;3.30;99.90;;;;;;5056740;28;20495;-66
2024/01/06 00:58:13;;;;;;;0.88;0.77;;;3.30;99.90;;;;;;5070467;28;20071;-63
2024/01/06 01:00:38;;;;;;;1.10;1.02;;;3.20;99.90;;;;;;5058627;28;20048;-65
2024/01/06 01:03:04;;;;;;;2.50;1.30;;;3.30;99.90;;;;;;5063300;28;20127;-65
2024/01/06 01:05:30;;;;;;;1.85;1.70;;;3.30;99.90;;;;;;5064766;28;20040;-65
2024/01/06 01:07:55;;;;;;;2.92;0.90;;;3.20;99.90;;;;;;5074109;28;20499;-65
2024/01/06 01:10:21;;;;;;;1.38;1.30;;;3.20;99.90;;;;;;5068121;28;20068;-64
2024/01/06 01:12:46;;;;;;;6.00;1.55;;;3.10;99.90;;;;;;5061692;28;20111;-65
2024/01/06 01:15:12;;;;;;;2.65;1.10;;;3.10;99.90;;;;;;5064161;28;20048;-64
2024/01/06 01:17:37;;;;;;;1.35;0.85;;;3.10;99.90;;;;;;5084400;28;20052;-65
2024/01/06 01:20:04;;;;;;;3.53;1.98;;;3.10;99.90;;;;;;5064329;28;20522;-65
2024/01/06 01:22:30;;;;;;;3.72;1.70;;;3.10;99.90;;;;;;5072005;28;20437;-64
2024/01/06 01:24:55;;;;;;;3.97;1.33;;;3.00;99.90;;;;;;5079333;28;20032;-64
2024/01/06 01:27:21;;;;;;;4.90;1.73;;;3.10;99.90;;;;;;5067137;28;20045;-66
2024/01/06 01:29:48;;;;;;;1.80;0.82;;;3.00;99.90;;;;;;5067104;28;20043;-64
2024/01/06 01:32:13;;;;;;;4.00;2.08;;;3.10;99.90;;;;;;5071326;28;20036;-63
2024/01/06 01:34:39;;;;;;;12.35;2.85;;;3.00;99.90;;;;;;5065758;28;20055;-64
2024/01/06 01:37:05;;;;;;;5.80;1.25;;;3.00;99.90;;;;;;5069848;28;20036;-64
2024/01/06 01:39:31;;;;;;;0.90;0.88;;;2.90;99.90;;;;;;5088402;28;20068;-64
2024/01/06 01:41:56;;;;;;;5.53;3.45;;;2.90;99.90;;;;;;5065930;28;20076;-64
2024/01/06 01:44:22;;;;;;;7.32;2.00;;;2.90;99.90;;;;;;5066847;28;20042;-64
2024/01/06 01:46:48;;;;;;;3.42;2.13;;;2.90;99.90;;;;;;5068602;28;20041;-65
2024/01/06 01:49:14;;;;;;;1.15;1.08;;;2.80;99.90;;;;;;5066413;28;20174;-63
2024/01/06 01:51:39;;;;;;;1.20;1.13;;;2.80;99.90;;;;;;5063215;28;20479;-64
2024/01/06 01:54:07;;;;;;;4.57;1.48;;;2.80;99.90;;;;;;5069163;28;20143;-65
2024/01/06 01:56:35;;;;;;;5.85;1.60;;;2.70;99.90;;;;;;5064310;28;20064;-65
2024/01/06 01:59:15;;;;;;;1.10;1.05;;;2.70;99.90;;;;;;5066905;28;20123;-65
2024/01/06 02:01:40;;;;;;;2.38;1.85;;;2.70;99.90;;;;;;5059424;28;20041;-63
2024/01/06 02:04:06;;;;;;;3.67;2.63;;;2.70;99.90;;;;;;5067776;28;20044;-64
2024/01/06 02:06:32;;;;;;;7.10;1.30;;;2.70;99.90;;;;;;5060952;28;20573;-63
2024/01/06 02:08:57;;;;;;;2.95;1.85;;;2.70;99.90;;;;;;5071588;28;20067;-64
2024/01/06 02:11:23;;;;;;;1.70;1.60;;;2.70;99.90;;;;;;5054512;28;20097;-64
2024/01/06 02:13:49;;;;;;;3.10;1.95;;;2.70;99.90;;;;;;5066902;28;20071;-63
2024/01/06 02:16:14;;;;;;;0.73;0.55;;;2.60;99.90;;;;;;5058203;28;20072;-63
2024/01/06 02:18:40;;;;;;;11.95;1.65;;;2.60;99.90;;;;;;5067074;28;20131;-64
2024/01/06 02:21:07;;;;;;;5.35;1.98;;;2.60;99.90;;;;;;5075077;28;20557;-64
2024/01/06 02:23:35;;;;;;;2.92;1.02;;;2.60;99.90;;;;;;5063440;28;20046;-64
2024/01/06 02:26:00;;;;;;;4.88;1.67;;;2.50;99.90;;;;;;5058815;28;20132;-64
2024/01/06 02:28:26;;;;;;;6.70;1.50;;;2.50;99.90;;;;;;5059695;28;20135;-63
2024/01/06 02:30:51;;;;;;;1.42;1.35;;;2.50;99.90;;;;;;5065892;28;20518;-64
2024/01/06 02:33:19;;;;;;;3.13;1.00;;;2.50;99.90;;;;;;5068190;28;20398;-63
2024/01/06 02:35:48;;;;;;;1.58;1.48;;;2.50;99.90;;;;;;5056670;28;20048;-64
2024/01/06 02:38:13;;;;;;;2.00;1.52;;;2.50;99.90;;;;;;5050613;28;20041;-63
2024/01/06 02:40:39;;;;;;;4.13;1.23;;;2.50;99.90;;;;;;5055545;28;20045;-63
2024/01/06 02:43:04;;;;;;;6.13;1.75;;;2.40;99.90;;;;;;5059114;28;20059;-63
2024/01/06 02:45:30;;;;;;;0.70;0.70;;;2.50;99.90;;;;;;5065445;28;20178;-63
2024/01/06 02:47:55;;;;;;;1.25;0.95;;;2.50;99.90;;;;;;5051308;28;20045;-64
2024/01/06 02:50:22;;;;;;;1.35;1.27;;;2.40;99.90;;;;;;5083197;28;20037;-64
2024/01/06 02:52:47;;;;;;;9.45;1.23;;;2.40;99.90;;;;;;5055217;28;20467;-63
2024/01/06 02:55:13;;;;;;;1.38;0.82;;;2.50;99.90;;;;;;5050237;28;20090;-63
2024/01/06 02:57:40;;;;;;;1.25;0.88;;;2.40;99.90;;;;;;5049178;28;20094;-64
2024/01/06 03:00:07;;;;;;;1.42;1.15;;;2.40;99.90;;;;;;5058686;28;20048;-63
2024/01/06 03:02:33;;;;;;;2.03;1.30;;;2.30;99.90;;;;;;5053480;28;20082;-64
2024/01/06 03:04:58;;;;;;;0.50;0.50;;;2.40;99.90;;;;;;5063539;28;20878;-64
2024/01/06 03:07:24;;;;;;;0.60;0.60;;;2.40;99.90;;;;;;5050211;28;20044;-63
2024/01/06 03:09:49;;;;;;;3.97;0.63;;;2.30;99.90;;;;;;5051579;28;20127;-64
2024/01/06 03:12:15;;;;;;;0.50;0.50;;;2.40;99.90;;;;;;5060995;28;20073;-64
2024/01/06 03:14:40;;;;;;;7.15;2.03;;;2.40;99.90;;;;;;5055883;28;20079;-63
2024/01/06 03:17:06;;;;;;;0.25;0.25;;;2.40;99.90;;;;;;5062609;28;20045;-64
2024/01/06 03:19:32;;;;;;;4.45;1.20;;;2.40;99.90;;;;;;5066779;28;20041;-64
2024/01/06 03:21:57;;;;;;;2.90;1.95;;;2.40;99.90;;;;;;5062974;28;20036;-63
2024/01/06 03:24:24;;;;;;;0.70;0.63;;;2.30;99.90;;;;;;5048079;28;20040;-63
2024/01/06 03:26:50;;;;;;;4.72;2.55;;;2.30;99.90;;;;;;5058234;28;20480;-63
2024/01/06 03:29:16;;;;;;;2.25;1.05;;;2.30;99.90;;;;;;5066380;28;20083;-63
2024/01/06 03:31:43;;;;;;;0.63;0.60;;;2.30;99.90;;;;;;5061160;28;20041;-64
2024/01/06 03:34:10;;;;;;;2.20;1.80;;;2.30;99.90;;;;;;5067954;28;20135;-65
2024/01/06 03:36:35;;;;;;;1.13;1.05;;;2.30;99.90;;;;;;5084299;28;20066;-64
2024/01/06 03:39:01;;;;;;;0.63;0.63;;;2.40;99.90;;;;;;5067137;28;20036;-64
2024/01/06 03:41:26;;;;;;;8.27;2.55;;;2.40;99.90;;;;;;5061802;28;20498;-64
2024/01/06 03:43:52;;;;;;;2.42;1.35;;;2.30;99.90;;;;;;5068147;28;20080;-63
2024/01/06 03:46:17;;;;;;;1.17;1.08;;;2.20;99.90;;;;;;5058384;28;20041;-63
2024/01/06 03:48:43;;;;;;;2.05;1.35;;;2.20;99.90;;;;;;5065472;28;20032;-64
2024/01/06 03:51:10;;;;;;;1.10;1.05;;;2.20;99.90;;;;;;5062445;28;20029;-64
2024/01/06 03:53:36;;;;;;;0.40;0.40;;;2.20;99.90;;;;;;5067821;28;20074;-64
2024/01/06 03:56:02;;;;;;;2.35;0.85;;;2.20;99.90;;;;;;5063111;28;20064;-64
2024/01/06 03:58:29;;;;;;;1.00;1.00;;;2.20;99.90;;;;;;5065774;28;20047;-64
2024/01/06 04:00:54;;;;;;;1.55;1.38;;;2.20;99.90;;;;;;5063700;28;20040;-64
2024/01/06 04:03:20;;;;;;;4.05;1.77;;;2.20;99.90;;;;;;5070551;28;20139;-64
2024/01/06 04:05:45;;;;;;;0.80;0.52;;;2.20;99.90;;;;;;5066976;28;20045;-63
2024/01/06 04:08:11;;;;;;;3.85;1.65;;;2.20;99.90;;;;;;5070034;28;20048;-63
2024/01/06 04:10:36;;;;;;;2.88;1.00;;;2.20;99.90;;;;;;5070837;28;20041;-63
2024/01/06 04:13:02;;;;;;;2.05;1.33;;;2.10;99.90;;;;;;5067430;28;20072;-64
2024/01/06 04:15:27;;;;;;;5.00;1.40;;;2.10;99.90;;;;;;5067432;28;20076;-64
2024/01/06 04:17:54;;;;;;;8.77;1.70;;;2.10;99.90;;;;;;5065156;28;20116;-64
2024/01/06 04:20:20;;;;;;;0.63;0.35;;;2.10;99.90;;;;;;5067257;28;20044;-64
2024/01/06 04:22:45;;;;;;;2.17;1.23;;;2.10;99.90;;;;;;5067430;28;20044;-64
2024/01/06 04:25:11;;;;;;;5.47;1.40;;;2.10;99.90;;;;;;5070047;28;20143;-64
2024/01/06 04:27:36;;;;;;;1.40;1.02;;;2.10;99.90;;;;;;5069668;28;20040;-64
2024/01/06 04:30:02;;;;;;;0.50;0.38;;;2.10;99.90;;;;;;5063593;28;20045;-64
2024/01/06 04:32:28;;;;;;;1.45;0.75;;;2.10;99.90;;;;;;5070302;28;20032;-64
2024/01/06 04:34:53;;;;;;;1.15;1.10;;;2.10;99.90;;;;;;5072048;28;20418;-64
2024/01/06 04:37:19;;;;;;;2.15;0.77;;;2.10;99.90;;;;;;5067956;28;20041;-64
2024/01/06 04:39:44;;;;;;;2.05;1.95;;;2.10;99.90;;;;;;5068252;28;20044;-64
2024/01/06 04:42:10;;;;;;;2.28;1.65;;;2.10;99.90;;;;;;5076606;28;20667;-64
2024/01/06 04:44:36;;;;;;;1.08;1.00;;;2.10;99.90;;;;;;5067358;28;20044;-64
2024/01/06 04:47:02;;;;;;;0.98;0.68;;;2.10;99.90;;;;;;5073239;28;20047;-64
2024/01/06 04:49:28;;;;;;;0.82;0.60;;;2.10;99.90;;;;;;5066823;28;20049;-63
2024/01/06 04:51:53;;;;;;;4.03;0.50;;;2.10;99.90;;;;;;5066640;28;20040;-63
2024/01/06 04:54:19;;;;;;;0.70;0.70;;;2.10;99.90;;;;;;5067256;28;20458;-63
2024/01/06 04:56:44;;;;;;;0.55;0.55;;;2.00;99.90;;;;;;5067690;28;20481;-63
2024/01/06 04:59:10;;;;;;;4.68;1.67;;;2.00;99.90;;;;;;5064009;28;20041;-63
2024/01/06 05:01:35;;;;;;;4.75;1.20;;;2.00;99.90;;;;;;5067305;28;20668;-63
2024/01/06 05:04:01;;;;;;;1.42;0.70;;;2.00;99.90;;;;;;5072919;28;20430;-63
2024/01/06 05:06:27;;;;;;;1.55;1.15;;;2.10;99.90;;;;;;5069447;28;20045;-63
2024/01/06 05:08:52;;;;;;;3.05;1.60;;;2.20;99.90;;;;;;5069368;28;20031;-65
2024/01/06 05:11:18;;;;;;;2.85;1.45;;;2.20;99.90;;;;;;5066551;28;20049;-64
2024/01/06 05:13:43;;;;;;;0.75;0.50;;;2.10;99.90;;;;;;5065487;28;20079;-64
2024/01/06 05:16:09;;;;;;;3.95;1.95;;;2.00;99.90;;;;;;5069024;28;20051;-64
2024/01/06 05:18:34;;;;;;;3.13;2.53;;;2.00;99.90;;;;;;5060343;28;20037;-63
2024/01/06 05:21:01;;;;;;;3.97;2.25;;;2.00;99.90;;;;;;5070634;28;20032;-63
2024/01/06 05:23:27;;;;;;;2.22;0.90;;;1.90;99.90;;;;;;5067374;28;20080;-63
2024/01/06 05:25:53;;;;;;;2.35;1.58;;;1.90;99.90;;;;;;5066073;28;20067;-64
2024/01/06 05:28:19;;;;;;;4.18;1.75;;;1.90;99.90;;;;;;5068362;28;20036;-63
2024/01/06 05:30:45;;;;;;;7.07;1.92;;;1.90;99.90;;;;;;5079200;28;20035;-63
2024/01/06 05:33:13;;;;;;;2.60;1.55;;;1.90;99.90;;;;;;5071319;28;20048;-64
2024/01/06 05:35:39;;;;;;;0.77;0.77;;;1.90;99.90;;;;;;5069329;28;20062;-64
2024/01/06 05:38:04;;;;;;;2.60;0.80;;;1.80;99.90;;;;;;5065919;28;20043;-63
2024/01/06 05:40:30;;;;;;;1.67;1.48;;;1.80;99.90;;;;;;5064091;28;20032;-63
2024/01/06 05:42:56;;;;;;;0.35;0.30;;;1.70;99.90;;;;;;5064525;28;20060;-64
2024/01/06 05:45:22;;;;;;;1.42;0.73;;;1.80;99.90;;;;;;5066922;28;20040;-64
2024/01/06 05:47:48;;;;;;;8.13;2.78;;;1.80;99.90;;;;;;5062197;28;20043;-64
2024/01/06 05:50:16;;;;;;;0.60;0.60;;;1.80;99.90;;;;;;5063712;28;20028;-64
2024/01/06 05:52:41;;;;;;;2.25;2.05;;;1.90;99.90;;;;;;5064734;28;20437;-65
2024/01/06 05:55:07;;;;;;;1.40;1.08;;;1.90;99.90;;;;;;5067138;28;20041;-64
2024/01/06 05:57:33;;;;;;;0.70;0.63;;;1.80;99.90;;;;;;5060961;28;20094;-64
2024/01/06 05:59:59;;;;;;;1.15;1.08;;;1.80;99.90;;;;;;5062991;28;20054;-63
2024/01/06 06:02:25;;;;;;;1.83;1.55;;;1.80;99.90;;;;;;5065406;28;20040;-64
2024/01/06 06:04:52;;;;;;;1.52;1.42;;;1.70;99.90;;;;;;5064504;28;20048;-63
2024/01/06 06:07:18;;;;;;;2.30;1.45;;;1.70;99.90;;;;;;5063969;28;20845;-63
2024/01/06 06:09:43;;;;;;;0.95;0.60;;;1.70;99.90;;;;;;5067284;28;20068;-63
2024/01/06 06:12:09;;;;;;;3.00;2.22;;;1.70;99.90;;;;;;5062457;28;20048;-64
2024/01/06 06:14:34;;;;;;;0.80;0.80;;;1.70;99.90;;;;;;5065455;28;20036;-64
2024/01/06 06:17:00;;;;;;;2.50;1.05;;;1.80;99.90;;;;;;5066421;28;20053;-64
2024/01/06 06:19:25;;;;;;;1.20;1.10;;;1.70;99.90;;;;;;5064048;28;20499;-64
2024/01/06 06:21:52;;;;;;;0.80;0.80;;;1.80;99.90;;;;;;5065871;28;20041;-64
2024/01/06 06:24:17;;;;;;;1.88;0.82;;;1.70;99.90;;;;;;5059014;28;20530;-63
2024/01/06 06:26:43;;;;;;;3.20;1.33;;;1.70;99.90;;;;;;5066398;28;20036;-63
2024/01/06 06:29:08;;;;;;;3.13;1.58;;;1.70;99.90;;;;;;5063185;28;20035;-63
2024/01/06 06:31:34;;;;;;;4.25;2.70;;;1.70;99.90;;;;;;5064982;28;20040;-63
2024/01/06 06:33:59;;;;;;;1.83;0.75;;;1.70;99.90;;;;;;5065164;28;20457;-65
2024/01/06 06:36:25;;;;;;;1.55;1.20;;;1.80;99.90;;;;;;5062762;28;20101;-63
2024/01/06 06:38:51;;;;;;;2.88;2.33;;;1.80;99.90;;;;;;5061077;28;20040;-63
2024/01/06 06:41:16;;;;;;;1.52;0.55;;;1.80;99.90;;;;;;5064072;28;20044;-63
2024/01/06 06:43:42;;;;;;;1.92;1.05;;;1.80;99.90;;;;;;5064410;28;20502;-64
2024/01/06 06:46:08;;;;;;;4.88;2.03;;;1.70;99.90;;;;;;5065682;28;20037;-65
2024/01/06 06:48:36;;;;;;;4.47;2.25;;;1.80;99.90;;;;;;5063226;28;20074;-64
2024/01/06 06:51:02;;;;;;;2.83;1.70;;;1.70;99.90;;;;;;5066035;28;20090;-64
2024/01/06 06:53:27;;;;;;;6.35;0.68;;;1.70;99.90;;;;;;5061888;28;20052;-64
2024/01/06 06:55:53;;;;;;;1.25;1.15;;;1.70;99.90;;;;;;5067627;28;20040;-64
2024/01/06 06:58:19;;;;;;;1.23;1.13;;;1.70;99.90;;;;;;5062967;28;20042;-64
2024/01/06 07:00:44;;;;;;;2.10;1.50;;;1.70;99.90;;;;;;5065879;28;20131;-64
2024/01/06 07:03:10;;;;;;;2.22;0.80;;;1.70;99.90;;;;;;5061535;28;20040;-64
2024/01/06 07:05:35;;;;;;;0.93;0.85;;;1.70;99.90;;;;;;5064731;28;20048;-64
2024/01/06 07:08:01;;;;;;;3.40;1.55;;;1.60;99.90;;;;;;5063403;28;20036;-64
2024/01/06 07:10:27;;;;;;;4.40;1.05;;;1.70;99.90;;;;;;5068325;28;20085;-64
2024/01/06 07:12:53;;;;;;;4.95;2.13;;;1.70;99.90;;;;;;5060282;28;20403;-63
2024/01/06 07:15:18;;;;;;;2.78;1.80;;;1.70;99.90;;;;;;5064707;28;20536;-63
2024/01/06 07:17:44;;;;;;;3.83;1.25;;;1.70;99.90;;;;;;5064235;28;20040;-63
2024/01/06 07:20:10;;;;;;;2.58;1.10;;;1.70;99.90;;;;;;5066411;28;20846;-63
2024/01/06 07:22:36;;;;;;;5.65;2.40;;;1.70;99.90;;;;;;5063741;28;20048;-63
2024/01/06 07:25:02;;;;;;;1.48;1.02;;;1.70;99.90;;;;;;5063161;28;20042;-63
2024/01/06 07:27:27;;;;;;;1.08;0.80;;;1.70;99.90;;;;;;5062628;28;20124;-63
2024/01/06 07:29:55;;;;;;;2.35;1.00;;;1.70;99.90;;;;;;5065187;28;20055;-64
2024/01/06 07:32:21;;;;;;;3.70;1.15;;;1.80;99.90;;;;;;5063086;28;20109;-63
2024/01/06 07:34:46;;;;;;;1.23;1.23;;;1.70;99.90;;;;;;5065397;28;20472;-63
2024/01/06 07:37:12;;;;;;;1.02;1.02;;;1.80;99.90;;;;;;5063306;28;20131;-64
2024/01/06 07:39:38;;;;;;;0.75;0.75;;;1.80;99.90;;;;;;5061945;28;20413;-64
2024/01/06 07:42:04;;;;;;;2.72;2.20;;;1.70;99.90;;;;;;5069571;28;20048;-64
2024/01/06 07:44:29;;;;;;;7.65;2.05;;;1.80;99.90;;;;;;5066151;28;20132;-64
2024/01/06 07:46:55;;;;;;;2.90;1.95;;;1.70;99.90;;;;;;5071464;28;20534;-63
2024/01/06 07:49:20;;;;;;;3.88;1.40;;;1.80;99.90;;;;;;5066565;28;20112;-64
2024/01/06 07:51:46;;;;;;;1.80;1.02;;;1.80;99.90;;;;;;5062935;28;20072;-67
2024/01/06 07:54:11;;;;;;;1.38;1.27;;;1.80;99.90;;;;;;5064407;28;20044;-66
2024/01/06 07:56:37;;;;;;;2.85;1.17;;;1.80;99.90;;;;;;5062325;28;20040;-68
2024/01/06 07:59:04;;;;;;;2.45;0.88;;;1.80;99.90;;;;;;5063927;28;20051;-66
2024/01/06 08:01:30;;;;;;;4.30;2.25;;;1.80;99.90;;;;;;5061078;28;20127;-67
2024/01/06 08:03:55;;;;;;;1.27;1.00;;;1.80;99.90;;;;;;5057806;28;20045;-66
2024/01/06 08:06:21;;;;;;;0.77;0.77;;;1.70;99.90;;;;;;5067261;28;20305;-66
2024/01/06 08:08:46;;;;;;;1.70;1.17;;;1.80;99.90;;;;;;5065520;28;20471;-66
2024/01/06 08:11:12;;;;;;;5.00;1.02;;;1.80;99.90;;;;;;5063395;28;20077;-67
2024/01/06 08:13:38;;;;;;;3.08;2.35;;;1.80;99.90;;;;;;5065516;28;20057;-68
2024/01/06 08:16:04;;;;;;;1.27;1.23;;;1.80;99.90;;;;;;5067839;28;20032;-66
2024/01/06 08:18:30;;;;;;;1.55;0.73;;;1.80;99.90;;;;;;5062929;28;20037;-66
2024/01/06 08:20:55;;;;;;;4.03;0.70;;;1.80;99.90;;;;;;5069614;28;20533;-67
2024/01/06 08:23:21;;;;;;;0.70;0.70;;;1.70;99.90;;;;;;5063429;28;20492;-66
2024/01/06 08:25:47;;;;;;;1.20;1.10;;;1.80;99.90;;;;;;5066559;28;20040;-66
2024/01/06 08:28:14;;;;;;;3.05;1.75;;;1.70;99.90;;;;;;5092704;28;20036;-66
2024/01/06 08:30:40;;;;;;;1.40;0.55;;;1.80;99.90;;;;;;5067212;28;20032;-66
2024/01/06 08:33:06;;;;;;;1.33;1.23;;;1.90;99.90;;;;;;5058489;28;20599;-66
2024/01/06 08:35:32;;;;;;;2.08;0.80;;;1.90;99.90;;;;;;5066439;28;20330;-66
2024/01/06 08:37:57;;;;;;;6.70;1.75;;;1.80;99.90;;;;;;5060875;28;21234;-67
2024/01/06 08:40:23;;;;;;;1.55;1.23;;;1.90;99.90;;;;;;5064891;28;20476;-67
2024/01/06 08:42:49;;;;;;;0.70;0.70;;;1.90;99.90;;;;;;5061563;28;20125;-67
2024/01/06 08:45:15;;;;;;;2.30;1.17;;;1.90;99.90;;;;;;5068136;28;20044;-66
2024/01/06 08:47:41;;;;;;;3.55;2.83;;;1.80;99.90;;;;;;5064726;28;20533;-66
2024/01/06 08:50:07;;;;;;;1.60;0.98;;;1.90;99.90;;;;;;5067997;28;20423;-70
2024/01/06 08:52:32;;;;;;;5.00;2.85;;;1.90;99.90;;;;;;5069781;28;20487;-67
2024/01/06 08:54:58;;;;;;;0.77;0.77;;;1.90;99.90;;;;;;5063426;28;20040;-67
2024/01/06 08:57:23;;;;;;;1.00;0.90;;;1.80;99.90;;;;;;5068087;28;20066;-67
2024/01/06 08:59:49;;;;;;;2.85;1.55;;;1.90;99.90;;;;;;5065252;28;20033;-66
2024/01/06 09:02:14;;;;;;;2.63;2.05;;;1.90;99.90;;;;;;5069448;28;20033;-66
2024/01/06 09:04:40;;;;;;;0.82;0.80;;;2.00;99.90;;;;;;5067005;28;20063;-66
2024/01/06 09:07:06;;;;;;;0.82;0.82;;;1.90;99.90;;;;;;5071296;28;20036;-67
2024/01/06 09:09:31;;;;;;;1.75;1.33;;;1.90;99.90;;;;;;5067618;28;20040;-67
2024/01/06 09:11:57;;;;;;;2.40;1.48;;;2.00;99.90;;;;;;5065537;28;20428;-66
2024/01/06 09:14:22;;;;;;;4.82;1.35;;;2.00;99.90;;;;;;5066806;28;20486;-66
2024/01/06 09:16:48;;;;;;;1.23;1.13;;;2.00;99.90;;;;;;5069938;28;21513;-66
2024/01/06 09:19:14;;;;;;;1.95;1.60;;;2.00;99.90;;;;;;5065046;28;20540;-66
2024/01/06 09:21:39;;;;;;;5.25;1.33;;;2.10;99.90;;;;;;5066888;28;20067;-66
2024/01/06 09:24:06;;;;;;;1.33;0.82;;;2.10;99.90;;;;;;5067847;28;20036;-68
2024/01/06 09:26:35;;;;;;;4.78;1.38;;;2.10;99.90;;;;;;5068529;28;20090;-66
2024/01/06 09:29:01;;;;;;;3.38;1.85;;;2.10;99.90;;;;;;5069331;28;20500;-66
2024/01/06 09:31:27;;;;;;;3.42;1.98;;;2.20;99.90;;;;;;5065216;28;20063;-66
2024/01/06 09:33:52;;;;;;;1.35;1.25;;;2.10;99.90;;;;;;5062948;28;20414;-66
2024/01/06 09:36:18;;;;;;;1.75;1.23;;;2.20;99.90;;;;;;5056942;28;20048;-66
2024/01/06 09:38:44;;;;;;;2.60;1.73;;;2.20;99.90;;;;;;5062755;28;20048;-66
2024/01/06 09:41:09;;;;;;;2.83;1.98;;;2.20;99.90;;;;;;5059385;28;20047;-67
2024/01/06 09:43:36;;;;;;;0.90;0.85;;;2.10;99.90;;;;;;5057217;28;20087;-66
2024/01/06 09:46:16;;;;;;;1.75;1.10;;;2.20;99.90;;;;;;5066766;28;20039;-66
2024/01/06 09:48:43;;;;;;;5.63;2.60;;;2.20;99.90;;;;;;5061307;28;20378;-66
2024/01/06 09:51:11;;;;;;;3.47;1.92;;;2.20;99.90;;;;;;5069525;28;20036;-67
2024/01/06 09:54:00;;;;;;;2.20;1.70;;;2.20;99.90;;;;;;5056405;28;20120;-67
2024/01/06 09:56:28;;;;;;;2.03;1.30;;;2.30;99.90;;;;;;5067969;28;20032;-68
2024/01/06 09:58:54;;;;;;;4.40;0.93;;;2.30;99.90;;;;;;5059643;28;20044;-66
2024/01/06 10:01:20;;;;;;;3.00;1.40;;;2.40;99.90;;;;;;5051693;28;20114;-66
2024/01/06 10:03:45;;;;;;;2.60;1.35;;;2.40;99.90;;;;;;5058370;28;20041;-68
2024/01/06 10:06:13;;;;;;;1.30;0.73;;;2.40;99.90;;;;;;5062960;28;20372;-67
2024/01/06 10:08:40;;;;;;;3.88;2.95;;;2.40;99.90;;;;;;5066244;28;20492;-67
2024/01/06 10:11:08;;;;;;;1.35;1.25;;;2.40;99.90;;;;;;5065873;28;20041;-68
2024/01/06 10:13:33;;;;;;;2.97;2.35;;;2.40;99.90;;;;;;5064168;28;20450;-66
2024/01/06 10:15:59;;;;;;;0.95;0.95;;;2.40;99.90;;;;;;5038764;28;20049;-66
2024/01/06 10:18:29;;;;;;;1.27;1.08;;;2.40;99.90;;;;;;5058319;28;20111;-67
2024/01/06 10:20:55;;;;;;;5.88;1.80;;;2.40;99.90;;;;;;5057356;28;20405;-67
2024/01/06 10:23:26;;;;;;;2.50;1.45;;;2.30;99.90;;;;;;5061081;28;20080;-68
2024/01/06 10:25:55;;;;;;;2.20;1.00;;;2.40;99.90;;;;;;5075043;28;20047;-67
2024/01/06 10:28:25;;;;;;;2.03;1.75;;;2.30;99.90;;;;;;5059691;28;20735;-66
2024/01/06 10:30:57;;;;;;;5.47;1.15;;;2.30;99.90;;;;;;5069378;28;20040;-66
2024/01/06 10:33:24;;;;;;;5.70;1.60;;;2.30;99.90;;;;;;5068716;28;20613;-68
2024/01/06 10:35:50;;;;;;;1.42;1.23;;;2.30;99.90;;;;;;5054454;28;20475;-66
2024/01/06 10:38:16;;;;;;;1.70;1.58;;;2.40;99.90;;;;;;5064608;28;20040;-65
2024/01/06 10:41:07;;;;;;;4.50;2.13;;;2.30;99.90;;;;;;5065953;28;20051;-66
2024/01/06 10:43:40;;;;;;;2.97;1.95;;;2.30;99.90;;;;;;5065670;28;20040;-66
2024/01/06 10:46:10;;;;;;;2.00;1.48;;;2.30;99.90;;;;;;5069584;28;20036;-67
2024/01/06 10:48:44;;;;;;;1.58;1.17;;;2.40;99.90;;;;;;5063686;28;20029;-66
2024/01/06 10:51:11;;;;;;;1.77;1.48;;;2.40;99.90;;;;;;5060679;28;20102;-67
2024/01/06 10:53:39;;;;;;;3.33;2.05;;;2.30;99.90;;;;;;5050540;28;20036;-66
2024/01/06 10:56:09;;;;;;;1.40;1.30;;;2.30;99.90;;;;;;5050960;28;20041;-66
2024/01/06 10:58:42;;;;;;;2.58;1.30;;;2.30;99.90;;;;;;5057783;28;20086;-66
2024/01/06 11:01:09;;;;;;;3.38;1.65;;;2.30;99.90;;;;;;5069792;28;20076;-65
2024/01/06 11:03:37;;;;;;;2.17;1.75;;;2.40;99.90;;;;;;5067368;28;20047;-67
2024/01/06 11:06:10;;;;;;;1.27;0.95;;;2.30;99.90;;;;;;5049229;28;20037;-66
2024/01/06 11:08:56;;;;;;;3.08;2.33;;;2.30;99.90;;;;;;5054542;28;20044;-67
2024/01/06 11:11:23;;;;;;;2.58;0.80;;;2.30;99.90;;;;;;5090112;28;20036;-67
2024/01/06 11:13:49;;;;;;;4.20;1.40;;;2.40;99.90;;;;;;5064146;28;20056;-67
2024/01/06 11:16:35;;;;;;;1.27;0.95;;;2.40;99.90;;;;;;5061797;28;20040;-68
2024/01/06 11:19:01;;;;;;;3.60;2.10;;;2.40;99.90;;;;;;5061668;28;20119;-67
2024/01/06 11:21:27;;;;;;;1.92;1.80;;;2.40;99.90;;;;;;5062808;28;20174;-67
2024/01/06 11:24:20;;;;;;;2.20;1.23;;;2.40;99.90;;;;;;5064158;28;20049;-65
2024/01/06 11:26:49;;;;;;;2.35;1.52;;;2.40;99.90;;;;;;5068556;28;20565;-68
2024/01/06 11:29:15;;;;;;;2.22;1.20;;;2.40;99.90;;;;;;5075313;28;20594;-66
2024/01/06 11:31:40;;;;;;;3.50;2.92;;;2.40;99.90;;;;;;5061318;28;20120;-66
2024/01/06 11:34:16;;;;;;;3.90;1.80;;;2.40;99.90;;;;;;5061937;28;20044;-66
2024/01/06 11:36:47;;;;;;;1.95;1.17;;;2.40;99.90;;;;;;5058640;28;20487;-66
2024/01/06 11:39:36;;;;;;;1.25;0.95;;;2.40;99.90;;;;;;5088210;28;20048;-67
2024/01/06 11:42:02;;;;;;;1.38;1.27;;;2.40;99.90;;;;;;5069137;28;20072;-67
2024/01/06 11:44:28;;;;;;;2.83;1.00;;;2.40;99.90;;;;;;5061801;28;20241;-66
2024/01/06 11:46:58;;;;;;;3.30;1.15;;;2.40;99.90;;;;;;5062593;28;20351;-66
2024/01/06 11:49:30;;;;;;;2.72;1.63;;;2.40;99.90;;;;;;5063085;28;20032;-66
2024/01/06 11:51:59;;;;;;;2.83;1.30;;;2.40;99.90;;;;;;5066469;28;20068;-66
2024/01/06 11:54:24;;;;;;;1.65;1.55;;;2.30;99.90;;;;;;5065506;28;20075;-67
2024/01/06 11:56:53;;;;;;;1.98;1.70;;;2.40;99.90;;;;;;5059829;28;20072;-67
2024/01/06 11:59:18;;;;;;;3.15;1.88;;;2.40;99.90;;;;;;5065027;28;20510;-67
2024/01/06 12:01:46;;;;;;;0.80;0.80;;;2.40;99.90;;;;;;5059877;28;20041;-67
2024/01/06 12:04:14;;;;;;;4.40;1.80;;;2.50;99.90;;;;;;5062856;28;20540;-67
2024/01/06 12:06:39;;;;;;;2.15;1.55;;;2.40;99.90;;;;;;5066459;28;20044;-67
2024/01/06 12:09:06;;;;;;;1.55;1.45;;;2.30;99.90;;;;;;5065054;28;20403;-67
2024/01/06 12:12:05;;;;;;;1.55;1.23;;;2.40;99.90;;;;;;5089117;28;20315;-67
2024/01/06 12:14:31;;;;;;;7.60;2.83;;;2.30;99.90;;;;;;5062615;28;20503;-66
2024/01/06 12:17:04;;;;;;;3.28;1.23;;;2.30;99.90;;;;;;5062246;28;20058;-66
2024/01/06 12:19:32;;;;;;;5.22;1.95;;;2.40;99.90;;;;;;5060554;28;20503;-66
2024/01/06 12:21:57;;;;;;;1.75;1.63;;;2.40;99.90;;;;;;5067198;28;20482;-66
2024/01/06 12:24:23;;;;;;;7.65;2.35;;;2.30;99.90;;;;;;5065672;28;20078;-66
2024/01/06 12:26:51;;;;;;;1.75;1.17;;;2.30;99.90;;;;;;5064169;28;20059;-66
2024/01/06 12:29:19;;;;;;;0.68;0.68;;;2.20;99.90;;;;;;5066400;28;20420;-68
2024/01/06 12:31:48;;;;;;;3.30;1.40;;;2.20;99.90;;;;;;5066562;28;20044;-66
2024/01/06 12:34:13;;;;;;;0.40;0.40;;;2.20;99.90;;;;;;5064604;28;20040;-66
2024/01/06 12:36:41;;;;;;;2.30;0.85;;;2.20;99.90;;;;;;5072437;28;20064;-67
2024/01/06 12:39:13;;;;;;;0.52;0.52;;;2.10;99.90;;;;;;5067853;28;20388;-66
2024/01/06 12:41:39;;;;;;;5.63;1.45;;;2.10;99.90;;;;;;5068067;28;20079;-66
2024/01/06 12:44:05;;;;;;;2.45;1.15;;;2.10;99.90;;;;;;5070684;28;20033;-66
2024/01/06 12:46:31;;;;;;;2.28;1.55;;;2.10;99.90;;;;;;5065212;28;20060;-67
2024/01/06 12:48:56;;;;;;;1.23;1.02;;;2.10;99.90;;;;;;5072407;28;20036;-67
2024/01/06 12:51:24;;;;;;;0.47;0.47;;;2.10;99.90;;;;;;5066022;28;20037;-66
2024/01/06 12:53:49;;;;;;;2.22;1.48;;;2.10;99.90;;;;;;5064749;28;20045;-66
2024/01/06 12:56:15;;;;;;;0.32;0.32;;;2.10;99.90;;;;;;5066270;28;20039;-66